There are no active watches, warnings or advisories


Thunder radar more information blitzortung!


Rain radar more information rain snow radar


Visit our other weather sites:

Template documentation
and downloads

And another site



Nearby METAR Reports

  
KAVL - Asheville Regional Airprot, NC
Distance from station: S 11.7mi, 19km
Updated: Oct 22 2018 7:54 pm
Clear
Clear  
 Wind from SE
Wind: SE 3 mph , 6 km/h
Temperature:  52°F , 11°C
Dew Point:  39°F , 4°C
Humidity:  62%
Barometer:  30.25 inHg , 1024.4 hPa
Clouds:  Clear
Visibility:   10 miles , 16 km
2018/10/22 23:54 KAVL 222354Z 13003KT 10SM CLR 11/04 A3025 RMK AO2 SLP244 T01110044 10
KGSP - Greer (GSP Airport) SC USA
Distance from station: SSE 52mi, 84km
Updated: Oct 22 2018 7:53 pm
Clear
Clear  
 Wind from calm
Wind: Calm
Temperature:  54°F , 12°C
Dew Point:  43°F , 6°C
Humidity:  67%
Barometer:  30.25 inHg , 1024.4 hPa
Clouds:  Clear
Visibility:   10 miles , 16 km
2018/10/22 23:53 KGSP 222353Z 00000KT 10SM CLR 12/06 A3025 RMK AO2 SLP245 T01220061 10183 20117 55000
KCLT - Charlotte, NC USA
Distance from station: ESE 92mi, 149km
Updated: Oct 22 2018 7:52 pm
Mostly Cloudy
Mostly Cloudy  
 Wind from SW
Wind: SW 3 mph , 6 km/h
Temperature:  54°F , 12°C
Dew Point:  43°F , 6°C
Humidity:  67%
Barometer:  30.25 inHg , 1024.4 hPa
Clouds:  Mostly Cloudy
Visibility:   10 miles , 16 km
Cloud details:  Few Clouds 21000 ft
Mostly Cloudy 25000 ft
2018/10/22 23:52 KCLT 222352Z 23003KT 10SM FEW210 BKN250 12/06 A3025 RMK AO2 SLP246 T01220056 10178 20122 55000
KRHP - Andrews, Andrews-Murphy Airport, NC, USA
Distance from station: WSW 81mi, 130km
Updated: Oct 22 2018 7:40 pm
Clear
Clear  
 Wind from calm
Wind: Calm
Temperature:  48°F , 9°C
Dew Point:  46°F , 8°C
Humidity:  94%
Barometer:  30.24 inHg , 1024 hPa
Clouds:  Clear
Visibility:   10 miles , 16 km
2018/10/22 23:40 KRHP 222340Z AUTO 00000KT 10SM CLR 09/08 A3024 RMK AO2 T00900079
KHKY - Hickory Reginal Airport, NC, USA
Distance from station: E 65mi, 104km
Updated: Oct 22 2018 7:53 pm
Clear
Clear  
 Wind from S
Wind: S 3 mph , 6 km/h
Temperature:  52°F , 11°C
Dew Point:  43°F , 6°C
Humidity:  72%
Barometer:  30.23 inHg , 1023.7 hPa
Clouds:  Clear
Visibility:   10 miles , 16 km
2018/10/22 23:53 KHKY 222353Z 19003KT 10SM CLR 11/06 A3023 RMK AO2 SLP231 T01060056 10167 20106 53002
KEHO - Shelby Municipal Airport, NC, USA
Distance from station: ESE 60mi, 96km
Updated: Oct 22 2018 7:40 pm
Clear
Clear  
 Wind from S
Wind: S 3 mph , 6 km/h
Temperature:  55°F , 13°C
Dew Point:  41°F , 5°C
Humidity:  59%
Barometer:  30.25 inHg , 1024.4 hPa
Clouds:  Clear
Visibility:   10 miles , 16 km
2018/10/22 23:40 KEHO 222340Z AUTO 18003KT 10SM CLR 13/05 A3025 RMK AO2 T01250050
KATL - Atlanta, De Kalb-Peachtree Airport, GA, USA
Distance from station: SSW 172mi, 237km
Updated: Oct 22 2018 7:52 pm
Mostly Cloudy
Mostly Cloudy  
 Wind from ESE
Wind: ESE 6 mph , 9 km/h
Temperature:  61°F , 16°C
Dew Point:  39°F , 4°C
Humidity:  45%
Barometer:  30.24 inHg , 1024 hPa
Clouds:  Mostly Cloudy
Visibility:   10 miles , 16 km
Cloud details:  Few Clouds 15000 ft
Mostly Cloudy 20000 ft
Mostly Cloudy 25000 ft
2018/10/22 23:52 KATL 222352Z 11005KT 10SM FEW150 BKN200 BKN250 16/04 A3024 RMK AO2 SLP240 T01560039 10194 20156 53004
KTYS - Knoxville, McGhee Tyson Airport, TN, USA
Distance from station: WNW 80mi, 130km
Updated: Oct 22 2018 7:53 pm
Clear
Clear  
 Wind from SSW
Wind: SSW 5 mph , 7 km/h
Temperature:  50°F , 10°C
Wind Chill:  48°F , 9°C
Dew Point:  45°F , 7°C
Humidity:  82%
Barometer:  30.20 inHg , 1022.7 hPa
Clouds:  Clear
Visibility:   10 miles , 16 km
2018/10/22 23:53 KTYS 222353Z 20004KT 10SM CLR 10/07 A3020 RMK AO2 SLP230 T01000072 10161 20100 56006
KRDU - Durham, Raleigh-Durham Airport, NC USA
Distance from station: E 205mi, 330km
Updated: Oct 22 2018 7:51 pm
Mostly Cloudy
Mostly Cloudy  
 Wind from calm
Wind: Calm
Temperature:  52°F , 11°C
Dew Point:  43°F , 6°C
Humidity:  72%
Barometer:  30.25 inHg , 1024.4 hPa
Clouds:  Mostly Cloudy
Visibility:   10 miles , 16 km
Cloud details:  Few Clouds 18000 ft
Mostly Cloudy 23000 ft
2018/10/22 23:51 KRDU 222351Z 00000KT 10SM FEW180 BKN230 11/06 A3025 RMK AO2 SLP244 T01060061 10167 20100 55003
 

Script developed by  Saratoga-weather.org Adapted for the template by  Weerstation Leuven

You find our weather info also at:


Weather Underground

AWEKAS

Citizen Weather Observer Program (CWOP)

HAMweather, WeatherForYou, PWS Weather

Equipment we use:


Weather-station
Davis VP2

Weather-program
Weather Display

Weather-server
Dell Poweredge SC420

Provider
1&1

Davis VP2

Weather Display

Dell Poweredge SC420

1&1